Maratha Promise — V7YE5 — position and weather

sailwx.info

Track history (hours):
 
Tides and Currents Weather Stations Pressure Air Temp Water Temp Dewpoint Dewpoint Depression Visibility Wind Speed Wind Dir Waves Ship Positions

Maratha Promise

Last reported at 2015-Jan-14 14:32 UTC. Time now 2015-Jan-25 22:17 UTC.
Position N 22°07' E 114°19'.
Warning: this ship's position is 11 days out of date.

Length 178 m; draft 6.5 m.

Type: Cargo ship. MMSI: 538004641.

Date/timePositionNaut miles runAvg speedWind from/ knotsBaromVisibWave heightAir tempDewpointWater temp
2015-Jan-14 14:32N 22°07' E 114°19'9 0.8
2015-Jan-14 02:24N 22°12' E 114°10'1110.6
2015-Jan-14 01:20N 22°21' E 114°03'  
2015-Jan-10 01:26N 22°22' E 113°55'6 6.5
2015-Jan-10 00:30N 22°21' E 114°02'11 8.7
2015-Jan-09 23:14N 22°13' E 114°10'5 6.9
2015-Jan-09 22:33N 22°10' E 114°13'4 4.4
2015-Jan-09 21:33N 22°06' E 114°10'0 0.2
2015-Jan-09 20:24N 22°06' E 114°10'0 0.0
2015-Jan-09 15:21N 22°06' E 114°10'0 0.0
2015-Jan-09 14:15N 22°06' E 114°10'0 0.0
2015-Jan-09 13:33N 22°06' E 114°10'0 0.0
2015-Jan-09 11:03N 22°06' E 114°10'0 0.2
2015-Jan-09 10:30N 22°06' E 114°10'5 4.7
2015-Jan-09 09:33N 22°07' E 114°15'9 9.1
2015-Jan-09 08:32N 22°02' E 114°23'9 8.8
2015-Jan-09 07:31N 21°53' E 114°24'  
Track history (hours):
 
Tides and Currents Weather Stations Pressure Air Temp Water Temp Dewpoint Dewpoint Depression Visibility Wind Speed Wind Dir Waves Ship Positions

Maratha Promise

Last reported at 2015-Jan-14 14:32 UTC. Time now 2015-Jan-25 22:17 UTC.
Position N 22°07' E 114°19'.
Warning: this ship's position is 11 days out of date.

Length 178 m; draft 6.5 m.

Type: Cargo ship. MMSI: 538004641.

Date/timePositionNaut miles runAvg speedWind from/ knotsBaromVisibWave heightAir tempDewpointWater temp
2015-Jan-14 14:32N 22°07' E 114°19'9 0.8
2015-Jan-14 02:24N 22°12' E 114°10'1110.6
2015-Jan-14 01:20N 22°21' E 114°03'  
2015-Jan-10 01:26N 22°22' E 113°55'6 6.5
2015-Jan-10 00:30N 22°21' E 114°02'11 8.7
2015-Jan-09 23:14N 22°13' E 114°10'5 6.9
2015-Jan-09 22:33N 22°10' E 114°13'4 4.4
2015-Jan-09 21:33N 22°06' E 114°10'0 0.2
2015-Jan-09 20:24N 22°06' E 114°10'0 0.0
2015-Jan-09 15:21N 22°06' E 114°10'0 0.0
2015-Jan-09 14:15N 22°06' E 114°10'0 0.0
2015-Jan-09 13:33N 22°06' E 114°10'0 0.0
2015-Jan-09 11:03N 22°06' E 114°10'0 0.2
2015-Jan-09 10:30N 22°06' E 114°10'5 4.7
2015-Jan-09 09:33N 22°07' E 114°15'9 9.1
2015-Jan-09 08:32N 22°02' E 114°23'9 8.8
2015-Jan-09 07:31N 21°53' E 114°24'  

Dump ship's entire track history